createdAt,value
2019-03-04T00:00:36.656Z,99016.56
2019-03-04T00:03:40.193Z,99018.39
2019-03-04T00:06:44.716Z,99012.38
2019-03-04T00:09:48.220Z,99019.84
2019-03-04T00:12:51.712Z,99015.02
2019-03-04T00:15:55.238Z,99012.38
2019-03-04T00:18:58.715Z,99012.38
2019-03-04T00:22:02.250Z,99022.62
2019-03-04T00:25:05.765Z,99018.99
2019-03-04T00:28:09.221Z,99022.62
2019-03-04T00:31:12.713Z,99024.55
2019-03-04T00:34:16.253Z,99007.00
2019-03-04T00:37:19.728Z,99002.05
2019-03-04T00:40:24.262Z,99001.20
2019-03-04T00:43:28.763Z,98993.25
2019-03-04T00:46:34.333Z,98994.23
2019-03-04T00:49:37.900Z,98972.58
2019-03-04T00:52:51.318Z,98960.67
2019-03-04T00:55:55.916Z,98969.22
2019-03-04T00:58:59.387Z,98949.87
2019-03-04T01:02:03.907Z,98963.58
2019-03-04T01:05:09.449Z,98965.25
2019-03-04T01:08:13.056Z,98964.91
2019-03-04T01:11:16.709Z,98964.05
2019-03-04T01:14:21.285Z,98965.51
2019-03-04T01:17:25.969Z,98960.59
2019-03-04T01:20:30.454Z,98960.22
2019-03-04T01:23:33.931Z,98948.30
2019-03-04T01:26:37.523Z,98944.33
2019-03-04T01:29:41.156Z,98940.36
2019-03-04T01:32:46.729Z,98932.08
2019-03-04T01:35:50.313Z,98915.34
2019-03-04T01:38:54.991Z,98909.23
2019-03-04T01:41:58.436Z,98898.98
2019-03-04T01:45:02.967Z,98892.98
2019-03-04T01:48:06.447Z,98887.69
2019-03-04T01:51:11.998Z,98884.70
2019-03-04T01:54:15.513Z,98875.91
2019-03-04T01:57:19.027Z,98862.67
2019-03-04T02:00:22.542Z,98836.20
2019-03-04T02:03:27.041Z,98845.34
2019-03-04T02:06:30.545Z,98846.53
2019-03-04T02:09:34.032Z,98847.78
2019-03-04T02:12:37.556Z,98839.36
2019-03-04T02:15:41.015Z,98848.28
2019-03-04T02:18:44.551Z,98852.59
2019-03-04T02:21:49.275Z,98846.45
2019-03-04T02:24:52.759Z,98858.36
2019-03-04T02:27:56.389Z,98848.42
2019-03-04T02:31:00.011Z,98852.02
2019-03-04T02:34:03.478Z,98851.54
2019-03-04T02:37:08.027Z,98853.84
2019-03-04T02:40:12.664Z,98843.73
2019-03-04T02:43:17.476Z,98842.88
2019-03-04T02:46:22.003Z,98840.11
2019-03-04T02:49:25.498Z,98830.97
2019-03-04T02:52:29.006Z,98832.30
2019-03-04T02:55:32.526Z,98830.97
2019-03-04T02:58:35.985Z,98830.97
2019-03-04T03:01:39.493Z,98819.57
2019-03-04T03:04:43.004Z,98832.67
2019-03-04T03:07:52.643Z,98832.80
2019-03-04T03:10:56.142Z,98818.72
2019-03-04T03:13:59.669Z,98812.45
2019-03-04T03:17:03.140Z,98803.48
2019-03-04T03:20:07.753Z,98797.55
2019-03-04T03:23:11.385Z,98790.45
2019-03-04T03:26:14.863Z,98786.12
2019-03-04T03:29:18.451Z,98770.23
2019-03-04T03:32:22.096Z,98783.98
2019-03-04T03:35:25.621Z,98761.83
2019-03-04T03:38:30.104Z,98760.16
2019-03-04T03:41:33.604Z,98753.04
2019-03-04T03:44:37.108Z,98753.55
2019-03-04T03:47:40.609Z,98755.85
2019-03-04T03:50:44.125Z,98735.63
2019-03-04T03:53:47.619Z,98726.37
2019-03-04T03:56:51.104Z,98732.64
2019-03-04T03:59:54.610Z,98745.27
2019-03-04T04:02:58.100Z,98755.14
2019-03-04T04:06:01.653Z,98738.14
2019-03-04T04:09:06.026Z,98718.43
2019-03-04T04:12:09.632Z,98727.69
2019-03-04T04:15:13.191Z,98714.97
2019-03-04T04:18:16.646Z,98715.45
2019-03-04T04:21:20.152Z,98711.14
2019-03-04T04:24:23.630Z,98706.19
2019-03-04T04:27:28.209Z,98705.84
2019-03-04T04:30:32.104Z,98694.27
2019-03-04T04:33:35.562Z,98693.94
2019-03-04T04:36:39.093Z,98691.63
2019-03-04T04:39:42.587Z,98678.53
2019-03-04T04:42:46.124Z,98676.36
2019-03-04T04:45:51.718Z,98673.24
2019-03-04T04:48:55.336Z,98660.48
2019-03-04T04:51:58.835Z,98661.81
2019-03-04T04:55:03.369Z,98652.55
2019-03-04T04:58:06.858Z,98641.16
2019-03-04T05:01:10.350Z,98626.59
2019-03-04T05:04:13.847Z,98620.45
2019-03-04T05:07:17.393Z,98623.44
2019-03-04T05:10:21.904Z,98619.61
2019-03-04T05:13:25.385Z,98602.78
2019-03-04T05:16:28.888Z,98596.64
2019-03-04T05:19:38.553Z,98594.00
2019-03-04T05:22:42.037Z,98590.03
2019-03-04T05:25:46.587Z,98572.83
2019-03-04T05:28:50.118Z,98578.13
2019-03-04T05:31:53.785Z,98573.30
2019-03-04T05:34:57.261Z,98575.14
2019-03-04T05:38:00.821Z,98559.60
2019-03-04T05:41:05.297Z,98560.59
2019-03-04T05:44:08.791Z,98537.11
2019-03-04T05:47:13.342Z,98531.48
2019-03-04T05:50:16.972Z,98527.66
2019-03-04T05:53:20.539Z,98527.14
2019-03-04T05:56:24.010Z,98519.20
2019-03-04T05:59:27.529Z,98520.05
2019-03-04T06:02:31.061Z,98523.41
2019-03-04T06:05:34.537Z,98530.63
2019-03-04T06:08:38.026Z,98527.52
2019-03-04T06:11:42.576Z,98520.90
2019-03-04T06:14:45.992Z,98527.14
2019-03-04T06:17:49.671Z,98519.20
2019-03-04T06:20:53.236Z,98509.95
2019-03-04T06:23:56.801Z,98502.99
2019-03-04T06:27:00.273Z,98499.03
2019-03-04T06:30:03.972Z,98481.49
2019-03-04T06:33:07.474Z,98480.17
2019-03-04T06:36:10.956Z,98475.21
2019-03-04T06:39:14.578Z,98465.95
2019-03-04T06:42:18.178Z,98452.25
2019-03-04T06:45:21.729Z,98459.34
2019-03-04T06:48:25.204Z,98461.98
2019-03-04T06:51:43.107Z,98452.72
2019-03-04T06:55:33.009Z,98432.88
2019-03-04T06:58:38.969Z,98452.25
2019-03-04T07:01:46.594Z,98444.31
2019-03-04T07:05:21.734Z,98447.77
2019-03-04T07:09:05.445Z,98455.03
2019-03-04T07:12:08.948Z,98453.23
2019-03-04T07:15:12.374Z,98450.41
2019-03-04T07:18:15.913Z,98432.88
2019-03-04T07:21:21.492Z,98446.95
2019-03-04T07:24:25.025Z,98422.63
2019-03-04T07:27:29.524Z,98419.17
2019-03-04T07:30:35.522Z,98402.45
2019-03-04T07:33:40.045Z,98409.07
2019-03-04T07:36:43.500Z,98407.75
2019-03-04T07:39:52.943Z,98391.88
2019-03-04T07:42:57.556Z,98385.25
2019-03-04T07:46:01.162Z,98377.32
2019-03-04T07:49:05.694Z,98390.88
2019-03-04T07:52:09.220Z,98376.51
2019-03-04T07:55:12.732Z,98366.41
2019-03-04T07:58:16.207Z,98362.29
2019-03-04T08:01:19.699Z,98353.84
2019-03-04T08:04:23.313Z,98335.69
2019-03-04T08:07:41.138Z,98328.70
2019-03-04T08:11:16.769Z,98307.55
2019-03-04T08:14:20.568Z,98312.83
2019-03-04T08:17:24.115Z,98311.51
2019-03-04T08:20:27.601Z,98296.95
2019-03-04T08:23:31.129Z,98274.14
2019-03-04T08:26:35.635Z,98260.77
2019-03-04T08:29:39.182Z,98245.22
2019-03-04T08:32:42.657Z,98237.13
2019-03-04T08:35:46.230Z,98240.14
2019-03-04T08:38:49.870Z,98230.38
2019-03-04T08:41:53.334Z,98232.87
2019-03-04T08:44:56.899Z,98214.50
2019-03-04T08:48:00.568Z,98213.02
2019-03-04T08:51:04.067Z,98217.66
2019-03-04T08:54:07.585Z,98214.02
2019-03-04T08:57:11.231Z,98205.45
2019-03-04T09:00:17.997Z,98202.80
2019-03-04T09:03:21.536Z,98193.88
2019-03-04T09:06:26.050Z,98196.19
2019-03-04T09:09:29.549Z,98179.32
2019-03-04T09:12:33.069Z,98188.28
2019-03-04T09:15:36.568Z,98189.25
2019-03-04T09:18:40.087Z,98185.64
2019-03-04T09:21:43.586Z,98182.99
2019-03-04T09:24:48.084Z,98178.72
2019-03-04T09:27:52.781Z,98185.34
2019-03-04T09:30:56.343Z,98177.41
2019-03-04T09:33:59.823Z,98181.38
2019-03-04T09:37:03.421Z,98179.05
2019-03-04T09:40:09.296Z,98175.41
2019-03-04T09:43:12.784Z,98157.88
2019-03-04T09:46:17.155Z,98155.56
2019-03-04T09:49:20.603Z,98177.44
2019-03-04T09:52:24.120Z,98171.30
2019-03-04T09:55:29.925Z,98173.61
2019-03-04T09:58:33.580Z,98162.03
2019-03-04T10:01:47.210Z,98158.61
2019-03-04T10:05:47.127Z,98149.34
2019-03-04T10:09:03.602Z,98161.28
2019-03-04T10:12:49.707Z,98143.09
2019-03-04T10:16:18.439Z,98138.96
2019-03-04T10:19:42.303Z,98138.81
2019-03-04T10:23:08.921Z,98141.45
2019-03-04T10:26:49.859Z,98146.27
2019-03-04T10:30:14.835Z,98151.89
2019-03-04T10:33:43.393Z,98132.22
2019-03-04T10:36:57.058Z,98152.55
2019-03-04T10:40:44.901Z,98135.56
2019-03-04T10:44:12.510Z,98146.63
2019-03-04T10:47:16.061Z,98157.55
2019-03-04T10:50:19.562Z,98145.78
2019-03-04T10:53:24.099Z,98154.09
2019-03-04T10:56:27.584Z,98136.88
2019-03-04T10:59:31.102Z,98132.75
2019-03-04T11:02:34.613Z,98143.83
2019-03-04T11:05:38.096Z,98117.36
2019-03-04T11:08:41.582Z,98105.17
2019-03-04T11:11:45.100Z,98082.79
2019-03-04T11:14:48.605Z,98064.73
2019-03-04T11:17:54.298Z,98041.30
2019-03-04T11:20:57.462Z,98060.17
2019-03-04T11:24:01.022Z,98054.72
2019-03-04T11:27:04.638Z,98036.69
2019-03-04T11:30:08.334Z,98030.73
2019-03-04T11:33:12.903Z,98041.17
2019-03-04T11:36:16.400Z,98068.30
2019-03-04T11:39:45.822Z,98049.77
2019-03-04T11:42:50.576Z,98058.55
2019-03-04T11:45:54.337Z,98059.55
2019-03-04T11:48:58.843Z,98029.92
2019-03-04T11:52:02.350Z,98040.36
2019-03-04T11:55:07.313Z,98002.67
2019-03-04T11:58:12.809Z,98007.65
2019-03-04T12:01:24.398Z,98011.63
2019-03-04T12:04:28.031Z,98036.80
2019-03-04T12:07:31.522Z,98026.22
2019-03-04T12:10:35.039Z,98018.95
2019-03-04T12:13:39.616Z,98021.28
2019-03-04T12:16:45.997Z,97990.31
2019-03-04T12:19:49.634Z,98003.23
2019-03-04T12:22:53.159Z,98017.01
2019-03-04T12:25:56.661Z,97984.38
2019-03-04T12:29:00.223Z,97995.50
2019-03-04T12:32:10.553Z,98007.27
2019-03-04T12:35:15.436Z,97992.54
2019-03-04T12:38:19.229Z,98003.30
2019-03-04T12:41:22.787Z,98005.47
2019-03-04T12:44:27.259Z,98003.15
2019-03-04T12:47:30.781Z,98039.91
2019-03-04T12:50:34.355Z,98025.34
2019-03-04T12:53:37.954Z,98046.54
2019-03-04T12:56:41.500Z,98025.34
2019-03-04T12:59:44.957Z,98030.80
2019-03-04T13:02:57.072Z,98015.71
2019-03-04T13:05:53.815Z,98027.64
2019-03-04T13:08:57.294Z,98030.64
2019-03-04T13:12:01.860Z,98035.42
2019-03-04T13:15:06.736Z,98035.75
2019-03-04T13:18:10.462Z,98025.99
2019-03-04T13:21:13.988Z,98023.34
2019-03-04T13:24:18.579Z,98009.45
2019-03-04T13:27:23.959Z,97988.90
2019-03-04T13:30:27.630Z,97976.97
2019-03-04T13:33:32.090Z,97979.95
2019-03-04T13:36:35.573Z,98007.45
2019-03-04T13:39:39.093Z,98003.15
2019-03-04T13:42:42.570Z,98009.45
2019-03-04T13:45:47.097Z,97977.45
2019-03-04T13:48:50.616Z,97989.73
2019-03-04T13:51:54.098Z,97990.90
2019-03-04T13:54:57.629Z,98003.15
2019-03-04T13:58:02.138Z,98032.30
2019-03-04T14:01:06.234Z,98054.30
2019-03-04T14:04:09.751Z,98074.36
2019-03-04T14:07:13.270Z,98069.38
2019-03-04T14:10:17.860Z,98073.34
2019-03-04T14:13:21.491Z,98050.83
2019-03-04T14:16:26.069Z,98056.13
2019-03-04T14:19:29.493Z,98050.47
2019-03-04T14:22:40.149Z,98049.14
2019-03-04T14:25:38.417Z,98032.92
2019-03-04T14:28:45.028Z,98041.87
2019-03-04T14:31:48.618Z,98046.84
2019-03-04T14:34:52.250Z,98050.14
2019-03-04T14:37:55.956Z,98045.84
2019-03-04T14:40:59.549Z,98052.14
2019-03-04T14:44:03.058Z,98045.52
2019-03-04T14:47:06.631Z,98042.34
2019-03-04T14:50:12.030Z,98045.83
2019-03-04T14:53:15.730Z,98026.97
2019-03-04T14:56:22.381Z,98024.97
2019-03-04T14:59:24.661Z,98033.39
2019-03-04T15:02:30.307Z,98030.42
2019-03-04T15:05:33.995Z,98037.20
2019-03-04T15:08:38.724Z,98049.77
2019-03-04T15:11:43.275Z,98046.30
2019-03-04T15:14:46.956Z,98068.66
2019-03-04T15:17:50.572Z,98064.01
2019-03-04T15:20:54.055Z,98060.56
2019-03-04T15:23:58.596Z,98073.28
2019-03-04T15:27:04.147Z,98080.74
2019-03-04T15:30:09.695Z,98063.01
2019-03-04T15:33:18.129Z,98067.33
2019-03-04T15:36:18.642Z,98067.66
2019-03-04T15:39:23.528Z,98068.66
2019-03-04T15:42:27.083Z,98062.34
2019-03-04T15:45:30.705Z,98066.00
2019-03-04T15:48:35.218Z,98072.63
2019-03-04T15:51:40.742Z,98059.55
2019-03-04T15:54:46.345Z,98065.00
2019-03-04T15:57:51.098Z,98071.47
2019-03-04T16:00:55.852Z,98070.63
2019-03-04T16:03:59.541Z,98047.78
2019-03-04T16:07:03.151Z,98043.81
2019-03-04T16:10:08.682Z,98032.91
2019-03-04T16:13:12.297Z,98013.67
2019-03-04T16:16:15.947Z,97998.47
2019-03-04T16:19:19.425Z,97977.92
2019-03-04T16:22:23.028Z,97968.97
2019-03-04T16:25:26.674Z,97974.27
2019-03-04T16:28:31.307Z,97992.48
2019-03-04T16:31:34.900Z,98017.65
2019-03-04T16:34:38.495Z,98039.01
2019-03-04T16:37:42.117Z,98067.50
2019-03-04T16:40:45.569Z,98073.96
2019-03-04T16:43:49.111Z,98068.99
2019-03-04T16:46:52.592Z,98062.04
2019-03-04T16:49:56.185Z,98071.64
2019-03-04T16:52:59.809Z,98078.91
2019-03-04T16:56:03.307Z,98087.20
2019-03-04T16:59:06.857Z,98130.41
2019-03-04T17:02:10.507Z,98174.95
2019-03-04T17:05:15.041Z,98153.92
2019-03-04T17:08:18.642Z,98162.34
2019-03-04T17:11:22.207Z,98156.41
2019-03-04T17:14:25.712Z,98152.11
2019-03-04T17:17:30.233Z,98147.78
2019-03-04T17:20:33.691Z,98168.33
2019-03-04T17:23:37.268Z,98183.54
2019-03-04T17:26:40.732Z,98185.24
2019-03-04T17:29:45.283Z,98180.43
2019-03-04T17:32:48.784Z,98170.03
2019-03-04T17:35:52.291Z,98177.98
2019-03-04T17:38:56.902Z,98176.98
2019-03-04T17:42:00.512Z,98174.19
2019-03-04T17:45:05.114Z,98167.89
2019-03-04T17:48:08.715Z,98168.73
2019-03-04T17:51:13.267Z,98160.78
2019-03-04T17:54:17.808Z,98174.03
2019-03-04T17:57:23.323Z,98165.09
2019-03-04T18:00:33.573Z,98173.03
2019-03-04T18:03:37.088Z,98177.01
2019-03-04T18:06:41.372Z,98190.95
2019-03-04T18:09:44.986Z,98193.92
2019-03-04T18:12:48.921Z,98202.86
2019-03-04T18:15:52.422Z,98196.05
2019-03-04T18:18:56.033Z,98227.22
2019-03-04T18:21:59.997Z,98290.48
2019-03-04T18:25:06.105Z,98333.03
2019-03-04T18:28:14.727Z,98359.86
2019-03-04T18:31:26.215Z,98361.03
2019-03-04T18:35:13.542Z,98370.79
2019-03-04T18:39:10.416Z,98381.06
2019-03-04T18:42:37.650Z,98403.91
2019-03-04T18:46:17.768Z,98411.86
2019-03-04T18:49:21.237Z,98407.56
2019-03-04T18:52:24.723Z,98410.06
2019-03-04T18:55:31.288Z,98402.11
2019-03-04T18:58:34.787Z,98395.00
2019-03-04T19:01:39.307Z,98391.03
2019-03-04T19:04:44.856Z,98393.02
2019-03-04T19:07:49.494Z,98395.48
2019-03-04T19:10:53.159Z,98398.98
2019-03-04T19:13:56.836Z,98389.70
2019-03-04T19:17:00.327Z,98409.43
2019-03-04T19:20:04.118Z,98411.23
2019-03-04T19:23:07.701Z,98410.09
2019-03-04T19:26:11.229Z,98408.92
2019-03-04T19:29:14.710Z,98415.91
2019-03-04T19:32:18.387Z,98412.27
2019-03-04T19:35:22.045Z,98431.98
2019-03-04T19:38:25.623Z,98437.28
2019-03-04T19:41:35.080Z,98432.80
2019-03-04T19:44:38.580Z,98431.47
2019-03-04T19:47:42.163Z,98429.01
2019-03-04T19:50:45.814Z,98436.77
2019-03-04T19:53:49.275Z,98435.45
2019-03-04T19:56:52.787Z,98446.41
2019-03-04T19:59:56.391Z,98444.58
2019-03-04T20:02:59.979Z,98440.75
2019-03-04T20:06:03.809Z,98445.75
2019-03-04T20:09:07.839Z,98437.92
2019-03-04T20:12:17.332Z,98447.02
2019-03-04T20:15:21.982Z,98443.33
2019-03-04T20:18:25.453Z,98456.25
2019-03-04T20:21:28.989Z,98463.50
2019-03-04T20:24:32.495Z,98468.14
2019-03-04T20:27:35.976Z,98460.19
2019-03-04T20:30:39.483Z,98461.81
2019-03-04T20:33:44.937Z,98471.08
2019-03-04T20:36:48.331Z,98481.49
2019-03-04T20:39:51.823Z,98475.31
2019-03-04T20:42:55.646Z,98485.91
2019-03-04T20:45:59.268Z,98496.14
2019-03-04T20:49:03.773Z,98496.31
2019-03-04T20:52:07.282Z,98501.77
2019-03-04T20:55:10.796Z,98518.28
2019-03-04T20:58:14.257Z,98513.97
2019-03-04T21:01:18.156Z,98524.86
2019-03-04T21:04:22.691Z,98523.68
2019-03-04T21:07:27.232Z,98538.39
2019-03-04T21:10:30.731Z,98550.31
2019-03-04T21:13:36.086Z,98544.68
2019-03-04T21:16:39.768Z,98550.94
2019-03-04T21:19:43.653Z,98557.22
2019-03-04T21:22:47.138Z,98559.20
2019-03-04T21:26:00.113Z,98563.80
2019-03-04T21:29:17.207Z,98577.38
2019-03-04T21:32:28.613Z,98575.37
2019-03-04T21:36:30.871Z,98575.37
2019-03-04T21:39:35.988Z,98589.86
2019-03-04T21:42:44.949Z,98616.34
2019-03-04T21:46:13.290Z,98609.05
2019-03-04T21:49:17.986Z,98629.20
2019-03-04T21:52:52.086Z,98637.84
2019-03-04T21:56:01.945Z,98638.75
2019-03-04T21:59:06.427Z,98648.02
2019-03-04T22:03:04.359Z,98656.61
2019-03-04T22:06:07.932Z,98656.23
2019-03-04T22:09:11.466Z,98668.80
2019-03-04T22:12:14.963Z,98664.46
2019-03-04T22:15:19.462Z,98665.30
2019-03-04T22:18:23.092Z,98670.74
2019-03-04T22:21:27.754Z,98684.45
2019-03-04T22:24:31.209Z,98685.95
2019-03-04T22:27:35.755Z,98688.60
2019-03-04T22:30:39.243Z,98697.46
2019-03-04T22:33:42.740Z,98699.30
2019-03-04T22:36:46.255Z,98703.41
2019-03-04T22:39:49.739Z,98704.02
2019-03-04T22:42:53.227Z,98713.28
2019-03-04T22:45:56.725Z,98713.77
2019-03-04T22:49:00.232Z,98726.19
2019-03-04T22:52:03.760Z,98727.17
2019-03-04T22:55:12.788Z,98727.98
2019-03-04T22:58:27.803Z,98742.68
2019-03-04T23:01:59.001Z,98740.17
2019-03-04T23:05:09.021Z,98738.38
2019-03-04T23:08:12.650Z,98742.81
2019-03-04T23:11:16.161Z,98751.27
2019-03-04T23:14:23.921Z,98751.41
2019-03-04T23:17:27.552Z,98751.27
2019-03-04T23:20:31.143Z,98767.42
2019-03-04T23:23:34.576Z,98760.16
2019-03-04T23:26:38.178Z,98759.48
2019-03-04T23:29:41.695Z,98764.91
2019-03-04T23:32:46.179Z,98765.05
2019-03-04T23:35:50.696Z,98769.36
2019-03-04T23:38:56.268Z,98760.61
2019-03-04T23:41:59.764Z,98772.98
2019-03-04T23:45:03.275Z,98778.28
2019-03-04T23:48:06.751Z,98770.34
2019-03-04T23:51:10.255Z,98766.64
2019-03-04T23:54:13.770Z,98772.28
2019-03-04T23:57:17.249Z,98776.75
